createdAt,value
2022-08-22T00:00:25.516Z,101710.75
2022-08-22T00:02:46.808Z,101734.19
2022-08-22T00:02:47.028Z,101739.81
2022-08-22T00:03:15.813Z,101734.63
2022-08-22T00:06:14.999Z,101710.00
2022-08-22T00:09:00.071Z,101704.13
2022-08-22T00:12:17.305Z,101712.06
2022-08-22T00:15:43.071Z,101706.78
2022-08-22T00:18:06.533Z,101717.97
2022-08-22T00:20:49.133Z,101712.84
2022-08-22T00:23:27.849Z,101707.44
2022-08-22T00:26:17.625Z,101706.59
2022-08-22T00:28:47.111Z,101705.03
2022-08-22T00:31:42.618Z,101704.91
2022-08-22T00:34:12.263Z,101706.59
2022-08-22T00:36:57.659Z,101711.13
2022-08-22T00:39:49.813Z,101713.56
2022-08-22T00:42:31.619Z,101715.47
2022-08-22T00:45:17.442Z,101710.41
2022-08-22T00:48:14.558Z,101708.41
2022-08-22T00:50:58.094Z,101719.56
2022-08-22T00:53:46.880Z,101722.41
2022-08-22T00:56:29.432Z,101721.59
2022-08-22T00:59:12.018Z,101723.19
2022-08-22T01:02:14.776Z,101721.53
2022-08-22T01:04:49.899Z,101714.53
2022-08-22T01:07:24.197Z,101715.50
2022-08-22T01:10:19.169Z,101722.56
2022-08-22T01:13:04.123Z,101721.00
2022-08-22T01:15:35.872Z,101719.75
2022-08-22T01:18:20.550Z,101724.69
2022-08-22T01:21:05.825Z,101723.72
2022-08-22T01:24:03.272Z,101731.03
2022-08-22T01:26:59.055Z,101720.59
2022-08-22T01:30:07.075Z,101721.31
2022-08-22T01:33:01.889Z,101722.16
2022-08-22T01:35:56.216Z,101723.22
2022-08-22T01:38:47.795Z,101727.09
2022-08-22T01:41:34.610Z,101733.44
2022-08-22T01:44:04.022Z,101723.63
2022-08-22T01:46:48.997Z,101727.22
2022-08-22T01:49:28.041Z,101722.69
2022-08-22T01:52:15.185Z,101718.25
2022-08-22T01:54:59.311Z,101721.22
2022-08-22T01:57:26.896Z,101715.75
2022-08-22T01:59:57.934Z,101723.88
2022-08-22T02:02:44.915Z,101724.50
2022-08-22T02:05:23.865Z,101733.25
2022-08-22T02:07:57.896Z,101729.66
2022-08-22T02:11:12.887Z,101724.81
2022-08-22T02:13:57.036Z,101722.41
2022-08-22T02:16:38.686Z,101723.97
2022-08-22T02:19:14.053Z,101724.81
2022-08-22T02:21:59.629Z,101719.53
2022-08-22T02:25:04.350Z,101713.22
2022-08-22T02:27:50.344Z,101706.47
2022-08-22T02:30:26.083Z,101708.16
2022-08-22T02:32:59.405Z,101701.53
2022-08-22T02:35:36.833Z,101712.63
2022-08-22T02:38:15.062Z,101710.09
2022-08-22T02:40:51.636Z,101709.44
2022-08-22T02:43:27.017Z,101705.75
2022-08-22T02:46:05.555Z,101692.69
2022-08-22T02:48:51.676Z,101703.09
2022-08-22T02:51:33.102Z,101705.97
2022-08-22T02:54:26.508Z,101704.91
2022-08-22T02:57:14.029Z,101706.72
2022-08-22T03:00:31.414Z,101704.81
2022-08-22T03:03:06.691Z,101704.41
2022-08-22T03:05:36.035Z,101698.28
2022-08-22T03:08:13.353Z,101696.19
2022-08-22T03:10:45.491Z,101698.59
2022-08-22T03:13:41.169Z,101694.19
2022-08-22T03:16:18.279Z,101695.13
2022-08-22T03:19:02.902Z,101693.53
2022-08-22T03:21:44.937Z,101695.22
2022-08-22T03:24:25.697Z,101693.44
2022-08-22T03:26:57.765Z,101684.56
2022-08-22T03:29:29.005Z,101684.06
2022-08-22T03:32:15.438Z,101685.63
2022-08-22T03:35:08.890Z,101690.81
2022-08-22T03:37:35.169Z,101681.75
2022-08-22T03:40:07.744Z,101675.09
2022-08-22T03:42:39.933Z,101674.88
2022-08-22T03:45:21.692Z,101674.16
2022-08-22T03:48:25.623Z,101669.50
2022-08-22T03:51:09.030Z,101666.97
2022-08-22T03:53:46.458Z,101670.78
2022-08-22T03:57:06.513Z,101671.09
2022-08-22T03:59:57.640Z,101667.41
2022-08-22T04:02:45.611Z,101667.41
2022-08-22T04:05:34.221Z,101679.31
2022-08-22T04:08:09.506Z,101679.97
2022-08-22T04:11:07.970Z,101678.16
2022-08-22T04:13:57.778Z,101675.00
2022-08-22T04:16:59.946Z,101679.84
2022-08-22T04:19:42.507Z,101671.84
2022-08-22T04:22:23.826Z,101676.16
2022-08-22T04:25:07.103Z,101675.84
2022-08-22T04:28:01.111Z,101679.72
2022-08-22T04:30:43.333Z,101683.22
2022-08-22T04:33:33.220Z,101678.91
2022-08-22T04:36:05.162Z,101682.47
2022-08-22T04:38:42.710Z,101684.16
2022-08-22T04:41:14.559Z,101690.28
2022-08-22T04:44:02.930Z,101685.84
2022-08-22T04:46:42.342Z,101687.97
2022-08-22T04:49:25.110Z,101689.94
2022-08-22T04:52:24.240Z,101687.31
2022-08-22T04:55:10.796Z,101695.13
2022-08-22T04:57:56.748Z,101692.41
2022-08-22T05:00:23.966Z,101696.28
2022-08-22T05:02:57.898Z,101689.22
2022-08-22T05:05:32.280Z,101697.03
2022-08-22T05:08:02.866Z,101691.84
2022-08-22T05:10:40.736Z,101696.28
2022-08-22T05:13:24.315Z,101692.81
2022-08-22T05:15:57.102Z,101693.66
2022-08-22T05:18:32.046Z,101692.81
2022-08-22T05:21:02.142Z,101688.38
2022-08-22T05:23:41.513Z,101685.84
2022-08-22T05:26:09.528Z,101691.97
2022-08-22T05:28:40.539Z,101696.38
2022-08-22T05:31:10.988Z,101697.25
2022-08-22T05:33:59.305Z,101715.56
2022-08-22T05:36:29.202Z,101711.44
2022-08-22T05:39:03.027Z,101715.78
2022-08-22T05:41:35.980Z,101725.25
2022-08-22T05:44:03.094Z,101727.97
2022-08-22T05:46:41.613Z,101734.13
2022-08-22T05:49:19.037Z,101731.66
2022-08-22T05:52:07.635Z,101733.16
2022-08-22T05:54:48.082Z,101727.97
2022-08-22T05:57:32.691Z,101729.69
2022-08-22T06:00:07.604Z,101721.47
2022-08-22T06:02:56.059Z,101726.53
2022-08-22T06:05:29.196Z,101720.63
2022-08-22T06:08:03.151Z,101721.47
2022-08-22T06:10:48.241Z,101729.38
2022-08-22T06:13:29.878Z,101734.44
2022-08-22T06:16:10.221Z,101733.78
2022-08-22T06:18:42.213Z,101738.97
2022-08-22T06:21:25.157Z,101733.47
2022-08-22T06:24:00.843Z,101739.72
2022-08-22T06:26:37.999Z,101738.09
2022-08-22T06:29:07.293Z,101735.28
2022-08-22T06:31:42.972Z,101741.38
2022-08-22T06:34:14.291Z,101748.22
2022-08-22T06:36:46.444Z,101752.34
2022-08-22T06:39:16.346Z,101747.81
2022-08-22T06:41:52.242Z,101747.31
2022-08-22T06:44:23.864Z,101748.78
2022-08-22T06:46:55.273Z,101749.53
2022-08-22T06:49:23.509Z,101753.00
2022-08-22T06:51:51.148Z,101755.41
2022-08-22T06:54:25.131Z,101757.84
2022-08-22T06:56:55.300Z,101752.91
2022-08-22T06:59:27.273Z,101755.41
2022-08-22T07:02:16.489Z,101766.06
2022-08-22T07:04:43.950Z,101768.47
2022-08-22T07:07:10.399Z,101760.56
2022-08-22T07:09:40.291Z,101758.78
2022-08-22T07:12:29.201Z,101761.31
2022-08-22T07:15:01.677Z,101763.72
2022-08-22T07:17:32.670Z,101761.09
2022-08-22T07:20:10.566Z,101760.06
2022-08-22T07:22:37.916Z,101755.53
2022-08-22T07:25:15.954Z,101751.00
2022-08-22T07:28:03.933Z,101759.63
2022-08-22T07:30:58.317Z,101750.00
2022-08-22T07:33:40.586Z,101747.19
2022-08-22T07:36:22.967Z,101752.00
2022-08-22T07:39:24.804Z,101757.72
2022-08-22T07:42:32.631Z,101744.09
2022-08-22T07:45:14.717Z,101740.41
2022-08-22T07:47:48.027Z,101737.66
2022-08-22T07:50:26.722Z,101744.41
2022-08-22T07:53:01.159Z,101745.09
2022-08-22T07:55:28.565Z,101742.66
2022-08-22T07:58:04.905Z,101746.41
2022-08-22T08:00:32.375Z,101736.03
2022-08-22T08:03:05.664Z,101726.75
2022-08-22T08:05:36.139Z,101722.97
2022-08-22T08:08:12.332Z,101721.06
2022-08-22T08:10:42.561Z,101719.06
2022-08-22T08:13:16.700Z,101721.97
2022-08-22T08:15:45.658Z,101709.72
2022-08-22T08:18:19.343Z,101704.47
2022-08-22T08:20:51.905Z,101703.06
2022-08-22T08:23:22.244Z,101700.63
2022-08-22T08:25:57.443Z,101697.53
2022-08-22T08:28:37.923Z,101693.09
2022-08-22T08:31:23.114Z,101699.69
2022-08-22T08:33:53.842Z,101699.19
2022-08-22T08:36:48.204Z,101697.63
2022-08-22T08:39:35.795Z,101700.31
2022-08-22T08:42:32.205Z,101698.97
2022-08-22T08:45:37.396Z,101693.91
2022-08-22T08:48:36.292Z,101698.81
2022-08-22T08:51:49.013Z,101693.88
2022-08-22T08:54:34.888Z,101687.09
2022-08-22T08:57:15.377Z,101698.28
2022-08-22T08:59:45.314Z,101699.13
2022-08-22T09:02:50.184Z,101693.44
2022-08-22T09:05:56.449Z,101699.94
2022-08-22T09:09:07.168Z,101691.22
2022-08-22T09:11:57.451Z,101692.63
2022-08-22T09:14:35.940Z,101697.16
2022-08-22T09:17:21.223Z,101691.16
2022-08-22T09:20:17.840Z,101686.72
2022-08-22T09:22:58.343Z,101691.69
2022-08-22T09:25:50.796Z,101691.75
2022-08-22T09:28:40.451Z,101686.31
2022-08-22T09:31:47.391Z,101684.13
2022-08-22T09:34:26.001Z,101685.16
2022-08-22T09:37:25.678Z,101676.97
2022-08-22T09:40:17.267Z,101680.50
2022-08-22T09:43:11.956Z,101677.56
2022-08-22T09:46:01.946Z,101682.31
2022-08-22T09:48:34.557Z,101671.63
2022-08-22T09:51:31.525Z,101668.69
2022-08-22T09:54:36.747Z,101673.50
2022-08-22T09:57:29.977Z,101666.81
2022-08-22T10:00:22.403Z,101662.28
2022-08-22T10:03:27.774Z,101648.91
2022-08-22T10:06:11.869Z,101665.22
2022-08-22T10:08:59.911Z,101656.47
2022-08-22T10:11:43.564Z,101654.34
2022-08-22T10:14:22.335Z,101650.44
2022-08-22T10:16:52.249Z,101653.25
2022-08-22T10:19:32.406Z,101649.41
2022-08-22T10:22:20.922Z,101656.13
2022-08-22T10:24:51.790Z,101647.22
2022-08-22T10:27:32.512Z,101638.41
2022-08-22T10:30:08.554Z,101637.25
2022-08-22T10:32:53.573Z,101629.50
2022-08-22T10:35:35.365Z,101633.91
2022-08-22T10:38:23.812Z,101629.72
2022-08-22T10:41:25.244Z,101630.91
2022-08-22T10:43:56.447Z,101621.31
2022-08-22T10:46:52.025Z,101626.38
2022-08-22T10:49:32.357Z,101622.78
2022-08-22T10:52:15.618Z,101623.91
2022-08-22T10:54:51.274Z,101621.78
2022-08-22T10:57:40.407Z,101623.66
2022-08-22T11:00:46.541Z,101624.66
2022-08-22T11:03:39.473Z,101613.31
2022-08-22T11:06:13.874Z,101621.84
2022-08-22T11:09:04.275Z,101626.16
2022-08-22T11:11:58.514Z,101624.75
2022-08-22T11:14:35.576Z,101619.44
2022-08-22T11:17:30.979Z,101627.16
2022-08-22T11:20:28.619Z,101623.50
2022-08-22T11:23:12.371Z,101616.75
2022-08-22T11:26:05.815Z,101618.03
2022-08-22T11:29:11.271Z,101611.47
2022-08-22T11:31:51.516Z,101614.09
2022-08-22T11:34:57.273Z,101615.88
2022-08-22T11:37:42.431Z,101600.44
2022-08-22T11:40:37.544Z,101602.69
2022-08-22T11:43:07.735Z,101597.53
2022-08-22T11:45:49.273Z,101603.47
2022-08-22T11:48:21.957Z,101605.81
2022-08-22T11:51:13.402Z,101607.91
2022-08-22T11:53:49.414Z,101607.53
2022-08-22T11:56:32.111Z,101610.59
2022-08-22T11:59:02.450Z,101608.88
2022-08-22T12:01:41.610Z,101603.88
2022-08-22T12:04:31.200Z,101606.13
2022-08-22T12:07:12.895Z,101602.09
2022-08-22T12:09:52.090Z,101601.31
2022-08-22T12:12:52.594Z,101604.28
2022-08-22T12:15:40.467Z,101593.25
2022-08-22T12:18:21.331Z,101592.44
2022-08-22T12:21:09.431Z,101591.97
2022-08-22T12:23:57.727Z,101589.78
2022-08-22T12:26:46.454Z,101590.38
2022-08-22T12:29:19.863Z,101599.88
2022-08-22T12:32:20.644Z,101590.75
2022-08-22T12:35:14.443Z,101590.00
2022-08-22T12:37:56.681Z,101587.31
2022-08-22T12:40:50.768Z,101588.38
2022-08-22T12:43:42.770Z,101585.47
2022-08-22T12:46:17.182Z,101573.16
2022-08-22T12:49:07.667Z,101579.16
2022-08-22T12:52:11.774Z,101575.47
2022-08-22T12:55:06.699Z,101576.66
2022-08-22T12:57:54.444Z,101566.53
2022-08-22T13:00:40.351Z,101575.97
2022-08-22T13:03:11.860Z,101565.41
2022-08-22T13:05:44.381Z,101563.28
2022-08-22T13:08:25.102Z,101556.13
2022-08-22T13:11:01.427Z,101550.91
2022-08-22T13:13:41.660Z,101555.72
2022-08-22T13:16:15.425Z,101554.09
2022-08-22T13:19:07.719Z,101547.13
2022-08-22T13:21:43.236Z,101547.06
2022-08-22T13:24:16.991Z,101556.19
2022-08-22T13:26:57.850Z,101545.94
2022-08-22T13:29:39.586Z,101546.06
2022-08-22T13:32:21.406Z,101550.38
2022-08-22T13:34:55.904Z,101546.25
2022-08-22T13:37:45.518Z,101547.31
2022-08-22T13:40:29.504Z,101539.31
2022-08-22T13:43:04.608Z,101541.59
2022-08-22T13:45:34.586Z,101533.94
2022-08-22T13:48:08.695Z,101525.06
2022-08-22T13:50:54.075Z,101534.03
2022-08-22T13:53:58.075Z,101534.50
2022-08-22T13:56:44.166Z,101530.59
2022-08-22T13:59:50.292Z,101528.69
2022-08-22T14:02:30.984Z,101532.47
2022-08-22T14:05:06.683Z,101534.63
2022-08-22T14:07:38.756Z,101521.69
2022-08-22T14:10:14.890Z,101520.38
2022-08-22T14:13:04.692Z,101519.72
2022-08-22T14:15:45.560Z,101516.72
2022-08-22T14:18:30.483Z,101514.59
2022-08-22T14:21:27.280Z,101515.97
2022-08-22T14:23:58.568Z,101515.97
2022-08-22T14:26:32.882Z,101505.63
2022-08-22T14:29:02.705Z,101510.47
2022-08-22T14:31:30.639Z,101511.47
2022-08-22T14:34:01.589Z,101501.09
2022-08-22T14:36:34.691Z,101511.47
2022-08-22T14:39:35.143Z,101502.94
2022-08-22T14:42:15.377Z,101502.94
2022-08-22T14:44:52.043Z,101499.28
2022-08-22T14:48:14.185Z,101493.06
2022-08-22T14:50:54.323Z,101494.00
2022-08-22T14:53:26.820Z,101493.19
2022-08-22T14:56:19.069Z,101493.53
2022-08-22T14:59:05.331Z,101496.69
2022-08-22T15:01:51.534Z,101494.28
2022-08-22T15:04:25.526Z,101486.13
2022-08-22T15:06:58.501Z,101478.19
2022-08-22T15:09:41.493Z,101486.84
2022-08-22T15:12:20.238Z,101486.44
2022-08-22T15:14:52.194Z,101480.84
2022-08-22T15:17:51.123Z,101484.81
2022-08-22T15:20:36.346Z,101477.47
2022-08-22T15:23:20.690Z,101478.03
2022-08-22T15:26:00.710Z,101477.56
2022-08-22T15:28:29.604Z,101480.44
2022-08-22T15:31:17.091Z,101472.13
2022-08-22T15:33:46.129Z,101479.72
2022-08-22T15:36:18.561Z,101477.28
2022-08-22T15:38:51.485Z,101475.44
2022-08-22T15:41:37.017Z,101479.00
2022-08-22T15:44:32.479Z,101471.88
2022-08-22T15:47:02.377Z,101465.63
2022-08-22T15:49:34.577Z,101470.22
2022-08-22T15:52:01.067Z,101464.47
2022-08-22T15:54:44.252Z,101469.72
2022-08-22T15:57:24.761Z,101468.00
2022-08-22T16:00:28.347Z,101464.53
2022-08-22T16:02:56.288Z,101462.00
2022-08-22T16:05:36.660Z,101454.03
2022-08-22T16:08:52.392Z,101452.38
2022-08-22T16:11:33.007Z,101451.06
2022-08-22T16:14:21.392Z,101453.78
2022-08-22T16:16:56.346Z,101448.28
2022-08-22T16:19:25.138Z,101446.75
2022-08-22T16:21:51.428Z,101442.28
2022-08-22T16:24:17.870Z,101445.44
2022-08-22T16:26:44.366Z,101440.25
2022-08-22T16:29:13.658Z,101439.91
2022-08-22T16:31:44.047Z,101436.09
2022-08-22T16:34:16.634Z,101432.75
2022-08-22T16:37:23.217Z,101430.59
2022-08-22T16:39:53.384Z,101436.22
2022-08-22T16:42:24.228Z,101436.06
2022-08-22T16:45:02.694Z,101434.59
2022-08-22T16:47:38.727Z,101428.72
2022-08-22T16:50:09.081Z,101429.56
2022-08-22T16:52:50.164Z,101429.56
2022-08-22T16:55:28.783Z,101434.41
2022-08-22T16:58:06.800Z,101434.38
2022-08-22T17:00:36.297Z,101434.69
2022-08-22T17:04:00.072Z,101427.19
2022-08-22T17:06:53.391Z,101431.19
2022-08-22T17:09:44.151Z,101421.13
2022-08-22T17:12:10.551Z,101427.50
2022-08-22T17:15:00.805Z,101425.13
2022-08-22T17:17:54.623Z,101418.47
2022-08-22T17:20:46.591Z,101419.13
2022-08-22T17:23:49.118Z,101422.47
2022-08-22T17:26:40.471Z,101419.13
2022-08-22T17:29:32.151Z,101419.81
2022-08-22T17:32:20.859Z,101418.94
2022-08-22T17:34:56.893Z,101430.94
2022-08-22T17:37:48.735Z,101422.44
2022-08-22T17:40:37.029Z,101434.91
2022-08-22T17:43:23.789Z,101431.91
2022-08-22T17:46:03.547Z,101431.41
2022-08-22T17:48:47.987Z,101438.56
2022-08-22T17:51:28.639Z,101438.22
2022-08-22T17:54:05.711Z,101445.53
2022-08-22T17:56:44.336Z,101441.53
2022-08-22T17:59:20.955Z,101441.16
2022-08-22T18:01:59.650Z,101442.94
2022-08-22T18:04:34.198Z,101442.75
2022-08-22T18:07:37.916Z,101448.09
2022-08-22T18:10:19.461Z,101446.34
2022-08-22T18:12:57.989Z,101450.19
2022-08-22T18:15:57.405Z,101445.00
2022-08-22T18:19:14.265Z,101445.97
2022-08-22T18:22:05.234Z,101444.59
2022-08-22T18:24:57.424Z,101446.72
2022-08-22T18:27:54.011Z,101447.34
2022-08-22T18:30:28.897Z,101449.81
2022-08-22T18:33:28.450Z,101449.97
2022-08-22T18:36:15.036Z,101453.91
2022-08-22T18:38:54.361Z,101456.00
2022-08-22T18:42:09.459Z,101460.47
2022-08-22T18:44:37.968Z,101453.56
2022-08-22T18:47:18.808Z,101452.59
2022-08-22T18:49:48.438Z,101459.50
2022-08-22T18:52:19.694Z,101453.91
2022-08-22T18:55:16.433Z,101464.53
2022-08-22T18:58:02.682Z,101469.47
2022-08-22T19:00:46.075Z,101468.09
2022-08-22T19:03:31.190Z,101473.03
2022-08-22T19:06:22.535Z,101475.81
2022-08-22T19:09:20.604Z,101482.28
2022-08-22T19:12:06.451Z,101489.75
2022-08-22T19:15:10.717Z,101490.59
2022-08-22T19:17:55.428Z,101489.50
2022-08-22T19:20:54.611Z,101487.63
2022-08-22T19:23:36.889Z,101497.09
2022-08-22T19:26:29.259Z,101497.72
2022-08-22T19:29:21.283Z,101502.66
2022-08-22T19:31:57.891Z,101503.94
2022-08-22T19:34:30.285Z,101507.19
2022-08-22T19:37:32.613Z,101505.50
2022-08-22T19:40:06.492Z,101506.50
2022-08-22T19:42:36.449Z,101497.00
2022-08-22T19:45:20.797Z,101502.91
2022-08-22T19:47:58.234Z,101502.50
2022-08-22T19:50:31.093Z,101500.31
2022-08-22T19:52:57.888Z,101501.00
2022-08-22T19:55:46.144Z,101502.13
2022-08-22T19:58:35.061Z,101498.28
2022-08-22T20:01:11.387Z,101496.75
2022-08-22T20:03:49.779Z,101498.28
2022-08-22T20:06:44.708Z,101501.50
2022-08-22T20:09:52.939Z,101500.44
2022-08-22T20:12:33.044Z,101493.41
2022-08-22T20:15:16.273Z,101495.13
2022-08-22T20:17:43.704Z,101497.09
2022-08-22T20:20:35.224Z,101499.47
2022-08-22T20:23:12.269Z,101497.41
2022-08-22T20:25:44.177Z,101492.91
2022-08-22T20:28:29.584Z,101495.88
2022-08-22T20:31:01.376Z,101489.88
2022-08-22T20:33:38.389Z,101492.97
2022-08-22T20:36:27.212Z,101494.34
2022-08-22T20:39:00.261Z,101493.97
2022-08-22T20:41:37.406Z,101495.31
2022-08-22T20:44:22.153Z,101480.94
2022-08-22T20:46:53.483Z,101486.81
2022-08-22T20:49:25.909Z,101485.84
2022-08-22T20:51:54.939Z,101484.44
2022-08-22T20:54:24.290Z,101481.53
2022-08-22T20:56:54.686Z,101484.03
2022-08-22T20:59:21.638Z,101481.81
2022-08-22T21:01:53.891Z,101479.03
2022-08-22T21:04:21.874Z,101475.97
2022-08-22T21:06:59.630Z,101479.03
2022-08-22T21:09:44.633Z,101479.56
2022-08-22T21:12:11.367Z,101476.91
2022-08-22T21:14:45.963Z,101480.00
2022-08-22T21:17:29.221Z,101477.75
2022-08-22T21:20:21.966Z,101472.03
2022-08-22T21:22:49.295Z,101476.06
2022-08-22T21:25:15.864Z,101486.97
2022-08-22T21:27:46.575Z,101484.88
2022-08-22T21:30:23.709Z,101483.91
2022-08-22T21:32:55.740Z,101489.97
2022-08-22T21:35:30.419Z,101479.84
2022-08-22T21:37:58.971Z,101473.78
2022-08-22T21:40:35.403Z,101471.44
2022-08-22T21:43:09.227Z,101473.09
2022-08-22T21:45:45.292Z,101470.19
2022-08-22T21:48:33.284Z,101469.31
2022-08-22T21:51:39.559Z,101465.13
2022-08-22T21:54:21.445Z,101465.84
2022-08-22T21:56:49.996Z,101469.63
2022-08-22T21:59:51.651Z,101470.56
2022-08-22T22:02:27.841Z,101467.63
2022-08-22T22:04:55.163Z,101465.84
2022-08-22T22:07:24.128Z,101475.59
2022-08-22T22:09:54.493Z,101468.59
2022-08-22T22:12:21.635Z,101467.59
2022-08-22T22:14:49.358Z,101470.81
2022-08-22T22:17:17.886Z,101474.00
2022-08-22T22:19:44.773Z,101466.34
2022-08-22T22:22:11.164Z,101462.84
2022-08-22T22:24:37.632Z,101459.88
2022-08-22T22:27:05.500Z,101457.13
2022-08-22T22:29:33.149Z,101467.13
2022-08-22T22:31:59.634Z,101465.72
2022-08-22T22:34:26.277Z,101464.06
2022-08-22T22:36:53.924Z,101467.13
2022-08-22T22:39:20.393Z,101466.78
2022-08-22T22:41:46.783Z,101477.00
2022-08-22T22:44:13.264Z,101471.00
2022-08-22T22:46:39.654Z,101470.66
2022-08-22T22:49:06.066Z,101467.69
2022-08-22T22:51:32.532Z,101470.63
2022-08-22T22:53:59.187Z,101474.09
2022-08-22T22:56:26.243Z,101474.91
2022-08-22T22:59:01.002Z,101468.66
2022-08-22T23:02:00.744Z,101479.06
2022-08-22T23:04:27.831Z,101477.25
2022-08-22T23:06:54.332Z,101474.38
2022-08-22T23:09:20.756Z,101476.56
2022-08-22T23:11:54.614Z,101470.84
2022-08-22T23:14:21.020Z,101482.53
2022-08-22T23:16:48.306Z,101473.34
2022-08-22T23:19:16.885Z,101484.47
2022-08-22T23:21:45.172Z,101483.47
2022-08-22T23:24:13.802Z,101480.13
2022-08-22T23:26:40.388Z,101480.31
2022-08-22T23:29:07.150Z,101470.25
2022-08-22T23:31:38.605Z,101471.28
2022-08-22T23:34:13.712Z,101473.69
2022-08-22T23:36:43.564Z,101475.81
2022-08-22T23:39:10.223Z,101478.97
2022-08-22T23:41:37.343Z,101472.00
2022-08-22T23:44:05.997Z,101470.44
2022-08-22T23:46:32.909Z,101466.13
2022-08-22T23:49:01.889Z,101457.09
2022-08-22T23:51:28.401Z,101455.56
2022-08-22T23:53:56.936Z,101452.91
2022-08-22T23:56:40.539Z,101455.69
2022-08-22T23:59:13.025Z,101452.00
